Time;durP1;ratioP1;P1;durP2;ratioP2;P2;SDS_P1;SDS_P2;PMS_P1;PMS_P2;Temp;Humidity;BMP_temperature;BMP_pressure;BME280_temperature;BME280_humidity;BME280_pressure;Samples;Min_cycle;Max_cycle;Signal;HPM_P1;HPM_P2
2022/09/05 00:00:25;;;;;;;6.03;2.60;;;;;;;17.65;61.21;99905.72;5030886;28;20053;-71
2022/09/05 00:03:10;;;;;;;3.70;2.45;;;;;;;17.64;61.12;99903.16;5031005;28;20077;-70
2022/09/05 00:05:57;;;;;;;3.78;2.58;;;;;;;17.59;61.24;99906.19;5031202;28;20050;-70
2022/09/05 00:08:32;;;;;;;4.47;3.05;;;;;;;17.54;61.33;99903.03;5031097;28;20045;-70
2022/09/05 00:11:09;;;;;;;5.30;2.40;;;;;;;17.52;61.46;99908.50;5031305;28;20058;-69
2022/09/05 00:13:42;;;;;;;4.25;2.58;;;;;;;17.49;61.66;99903.38;5030926;28;20140;-70
2022/09/05 00:16:40;;;;;;;3.45;2.42;;;;;;;17.46;61.75;99898.28;5030207;28;20645;-71
2022/09/05 00:19:14;;;;;;;5.00;2.70;;;;;;;17.37;61.75;99898.97;5028404;28;20045;-70
2022/09/05 00:21:56;;;;;;;5.30;2.58;;;;;;;17.31;62.20;99902.13;5031295;28;20516;-68
2022/09/05 00:24:39;;;;;;;5.63;2.88;;;;;;;17.20;62.31;99896.72;5030335;28;20823;-71
2022/09/05 00:27:15;;;;;;;3.72;2.70;;;;;;;17.11;62.85;99900.94;5029913;28;20046;-69
2022/09/05 00:30:09;;;;;;;2.97;2.28;;;;;;;17.04;63.26;99895.22;5030701;28;20060;-69
2022/09/05 00:32:52;;;;;;;7.07;3.10;;;;;;;17.01;63.28;99902.59;5029634;28;20045;-71
2022/09/05 00:35:48;;;;;;;3.83;2.53;;;;;;;16.99;63.39;99897.38;5022744;28;20827;-71
2022/09/05 00:38:17;;;;;;;3.95;2.60;;;;;;;17.00;63.42;99896.41;5030779;28;20055;-70
2022/09/05 00:40:48;;;;;;;3.53;2.70;;;;;;;16.98;63.38;99893.00;5036091;28;20457;-71
2022/09/05 00:43:18;;;;;;;3.00;2.35;;;;;;;16.99;63.14;99888.53;5038611;28;20080;-66
2022/09/05 00:45:52;;;;;;;4.22;2.42;;;;;;;17.02;63.23;99886.50;5041912;28;20045;-66
2022/09/05 00:48:28;;;;;;;2.67;2.17;;;;;;;17.03;62.78;99888.22;5042245;28;20758;-69
2022/09/05 00:51:05;;;;;;;4.05;2.40;;;;;;;17.05;62.73;99891.59;5042093;28;20046;-67
2022/09/05 00:53:48;;;;;;;3.13;2.50;;;;;;;17.07;62.67;99900.31;5035703;28;20080;-70
2022/09/05 00:56:33;;;;;;;2.95;2.40;;;;;;;17.04;62.55;99891.72;5034749;28;20042;-70
2022/09/05 00:59:44;;;;;;;4.47;2.28;;;;;;;16.99;62.95;99891.22;5034594;28;20500;-69
2022/09/05 01:02:22;;;;;;;4.18;2.70;;;;;;;16.88;63.33;99892.84;4956362;29;20059;-69
2022/09/05 01:04:54;;;;;;;5.53;3.80;;;;;;;16.82;63.12;99895.97;5031793;28;20120;-68
2022/09/05 01:07:41;;;;;;;6.20;2.55;;;;;;;16.80;63.11;99897.88;5033842;28;20041;-69
2022/09/05 01:10:19;;;;;;;4.07;2.58;;;;;;;16.78;63.32;99898.91;5031612;28;20049;-69
2022/09/05 01:13:11;;;;;;;3.75;2.65;;;;;;;16.75;63.82;99900.00;5030444;28;20053;-70
2022/09/05 01:15:48;;;;;;;4.18;2.80;;;;;;;16.70;64.29;99899.47;5029859;28;20484;-70
2022/09/05 01:18:31;;;;;;;3.80;2.88;;;;;;;16.69;64.16;99901.31;5029217;28;20053;-69
2022/09/05 01:21:33;;;;;;;5.55;2.35;;;;;;;16.61;64.12;99893.00;5029146;28;20052;-70
2022/09/05 01:24:23;;;;;;;5.30;2.60;;;;;;;16.62;64.24;99896.53;5015213;28;20059;-68
2022/09/05 01:27:33;;;;;;;4.00;2.38;;;;;;;16.59;64.15;99888.75;5028625;28;20677;-70
2022/09/05 01:30:08;;;;;;;3.38;2.58;;;;;;;16.60;64.25;99879.81;5022103;28;20060;-70
2022/09/05 01:32:48;;;;;;;3.83;2.72;;;;;;;16.58;64.15;99881.75;5019538;28;20527;-70
2022/09/05 01:35:50;;;;;;;5.70;4.10;;;;;;;16.57;64.46;99888.88;5029974;28;20175;-70
2022/09/05 01:38:26;;;;;;;3.50;2.90;;;;;;;16.55;64.46;99882.81;5032817;28;20633;-70
2022/09/05 01:41:04;;;;;;;2.28;2.08;;;;;;;16.55;64.22;99889.97;5016649;28;20049;-69
2022/09/05 01:43:53;;;;;;;4.93;2.28;;;;;;;16.57;64.28;99885.38;5015152;28;20117;-70
2022/09/05 01:46:30;;;;;;;4.63;2.33;;;;;;;16.60;63.68;99886.00;5014598;28;20072;-69
2022/09/05 01:49:02;;;;;;;3.08;2.67;;;;;;;16.62;63.87;99891.22;5029551;28;20136;-68
2022/09/05 01:51:36;;;;;;;2.50;2.08;;;;;;;16.63;63.53;99887.56;5031268;28;20155;-68
2022/09/05 01:54:18;;;;;;;3.55;2.33;;;;;;;16.62;63.60;99889.41;5032323;28;20443;-69
2022/09/05 01:56:54;;;;;;;4.13;3.10;;;;;;;16.62;63.50;99877.91;5041052;28;20049;-69
2022/09/05 01:59:36;;;;;;;2.95;2.13;;;;;;;16.58;63.56;99869.28;5041444;28;20056;-69
2022/09/05 02:02:32;;;;;;;3.00;2.30;;;;;;;16.59;64.06;99875.44;5030543;28;20128;-68
2022/09/05 02:05:13;;;;;;;6.05;2.63;;;;;;;16.59;63.92;99875.44;5030557;28;20061;-69
2022/09/05 02:08:02;;;;;;;3.00;2.53;;;;;;;16.57;63.94;99877.41;5030302;28;20137;-68
2022/09/05 02:10:42;;;;;;;7.03;2.95;;;;;;;16.55;63.93;99879.31;5029606;28;20482;-69
2022/09/05 02:13:21;;;;;;;3.75;2.58;;;;;;;16.51;63.89;99879.53;5029364;28;20169;-68
2022/09/05 02:15:58;;;;;;;6.22;2.92;;;;;;;16.46;63.50;99881.66;5028545;28;20077;-68
2022/09/05 02:18:31;;;;;;;5.10;2.60;;;;;;;16.45;63.54;99879.13;5033964;28;20136;-70
2022/09/05 02:21:01;;;;;;;3.78;2.58;;;;;;;16.46;63.74;99889.63;5036889;28;20045;-68
2022/09/05 02:23:38;;;;;;;3.75;2.88;;;;;;;16.43;63.78;99891.69;5035004;28;20140;-69
2022/09/05 02:26:08;;;;;;;3.33;2.22;;;;;;;16.41;63.80;99891.78;5029474;28;20131;-69
2022/09/05 02:28:43;;;;;;;4.82;3.10;;;;;;;16.42;63.75;99890.84;5025946;28;20255;-69
2022/09/05 02:31:19;;;;;;;3.03;2.30;;;;;;;16.40;63.72;99883.94;5029560;28;20133;-68
2022/09/05 02:33:51;;;;;;;2.95;2.25;;;;;;;16.38;64.24;99888.50;5009496;28;20056;-68
2022/09/05 02:36:28;;;;;;;3.22;2.45;;;;;;;16.38;63.89;99888.50;5018590;28;20080;-68
2022/09/05 02:39:02;;;;;;;3.40;2.47;;;;;;;16.36;63.91;99885.09;5028988;28;20416;-68
2022/09/05 02:41:37;;;;;;;4.07;2.60;;;;;;;16.36;63.83;99893.09;5026658;28;20071;-68
2022/09/05 02:44:08;;;;;;;2.90;2.47;;;;;;;16.35;64.35;99886.91;5028908;28;20046;-69
2022/09/05 02:46:45;;;;;;;4.07;2.72;;;;;;;16.37;64.09;99892.97;5028411;28;20308;-67
2022/09/05 02:49:17;;;;;;;4.88;2.40;;;;;;;16.36;63.82;99888.59;5029318;28;20103;-67
2022/09/05 02:51:48;;;;;;;5.43;3.25;;;;;;;16.38;63.42;99886.69;5028729;28;20060;-66
2022/09/05 02:54:20;;;;;;;7.95;3.40;;;;;;;16.37;63.60;99884.16;5027964;28;20439;-67
2022/09/05 02:57:01;;;;;;;4.82;2.60;;;;;;;16.36;63.84;99885.94;5027762;28;20053;-70
2022/09/05 02:59:50;;;;;;;5.30;2.97;;;;;;;16.35;63.89;99884.25;5028857;28;20050;-68
2022/09/05 03:02:27;;;;;;;4.07;2.53;;;;;;;16.38;63.83;99884.03;5028713;28;20053;-68
2022/09/05 03:05:00;;;;;;;2.85;2.45;;;;;;;16.41;63.63;99885.63;5028323;28;20435;-69
2022/09/05 03:07:54;;;;;;;5.28;2.60;;;;;;;16.42;63.97;99882.00;5027689;28;20523;-67
2022/09/05 03:10:39;;;;;;;5.28;2.58;;;;;;;16.42;63.76;99890.84;5028178;28;20052;-66
2022/09/05 03:13:39;;;;;;;5.87;2.90;;;;;;;16.44;63.71;99888.94;5028046;28;20061;-69
2022/09/05 03:16:43;;;;;;;6.28;3.17;;;;;;;16.43;63.76;99884.53;5027564;28;20060;-67
2022/09/05 03:19:40;;;;;;;5.90;3.17;;;;;;;16.40;63.54;99889.25;5028480;28;21195;-68
2022/09/05 03:22:41;;;;;;;3.70;2.80;;;;;;;16.40;63.85;99884.78;5025998;28;20436;-67
2022/09/05 03:25:51;;;;;;;5.15;3.30;;;;;;;16.40;63.91;99890.09;5030588;28;20050;-68
2022/09/05 03:29:11;;;;;;;4.65;3.10;;;;;;;16.41;63.98;99890.94;5031428;28;20045;-69
2022/09/05 03:32:16;;;;;;;4.60;2.70;;;;;;;16.40;63.87;99889.25;5043369;28;20055;-69
2022/09/05 03:35:32;;;;;;;16.60;4.07;;;;;;;16.36;64.07;99882.44;4998988;28;20053;-73
2022/09/05 03:38:28;;;;;;;4.47;3.05;;;;;;;16.37;64.00;99885.00;4969741;28;20047;-67
2022/09/05 03:41:18;;;;;;;7.00;3.45;;;;;;;16.36;63.71;99877.97;5028366;28;20522;-69
2022/09/05 03:44:02;;;;;;;4.40;2.80;;;;;;;16.38;63.50;99884.03;5031048;28;20049;-69
2022/09/05 03:46:50;;;;;;;5.88;3.53;;;;;;;16.40;64.09;99881.28;5030710;28;20045;-70
2022/09/05 03:49:36;;;;;;;3.03;2.30;;;;;;;16.37;63.82;99878.84;5031408;28;20053;-69
2022/09/05 03:52:19;;;;;;;4.35;2.92;;;;;;;16.37;64.10;99881.50;5031439;28;20424;-69
2022/09/05 03:55:12;;;;;;;8.27;3.05;;;;;;;16.37;64.13;99884.16;5031083;28;20053;-69
2022/09/05 03:57:59;;;;;;;6.88;2.85;;;;;;;16.38;64.10;99883.19;5007225;28;20049;-69
2022/09/05 04:00:29;;;;;;;3.83;2.55;;;;;;;16.37;64.11;99881.50;5031159;28;20566;-69
2022/09/05 04:03:10;;;;;;;3.40;2.67;;;;;;;16.37;64.09;99878.84;5031277;28;20053;-69
2022/09/05 04:05:40;;;;;;;4.90;3.05;;;;;;;16.37;63.71;99882.34;5030920;28;20493;-69
2022/09/05 04:08:15;;;;;;;3.67;2.55;;;;;;;16.38;63.81;99876.06;5030787;28;20053;-70
2022/09/05 04:10:52;;;;;;;3.78;3.20;;;;;;;16.37;64.12;99879.69;5030698;28;20148;-70
2022/09/05 04:13:24;;;;;;;3.17;2.45;;;;;;;16.39;64.02;99880.44;5030818;28;20065;-70
2022/09/05 04:16:05;;;;;;;6.78;2.83;;;;;;;16.37;64.00;99878.84;5030798;28;20052;-69
2022/09/05 04:18:37;;;;;;;5.57;4.43;;;;;;;16.35;64.07;99881.59;5025304;28;20050;-70
2022/09/05 04:21:10;;;;;;;6.55;3.03;;;;;;;16.37;63.82;99878.84;5029649;28;20057;-70
2022/09/05 04:23:51;;;;;;;4.28;2.33;;;;;;;16.38;63.97;99881.38;5030580;28;20099;-69
2022/09/05 04:26:30;;;;;;;7.55;2.97;;;;;;;16.40;63.38;99886.59;5029801;28;20060;-70
2022/09/05 04:29:04;;;;;;;3.38;2.63;;;;;;;16.39;63.55;99890.19;5019147;28;20068;-69
2022/09/05 04:31:43;;;;;;;9.50;3.03;;;;;;;16.37;63.67;99884.16;5010604;28;20054;-72
2022/09/05 04:34:25;;;;;;;5.25;2.90;;;;;;;16.34;63.90;99884.34;5010323;28;20057;-69
2022/09/05 04:37:01;;;;;;;5.22;2.78;;;;;;;16.35;63.71;99884.25;5010005;28;20060;-71
2022/09/05 04:39:31;;;;;;;10.15;3.13;;;;;;;16.35;64.18;99883.41;5013458;28;20526;-69
2022/09/05 04:42:10;;;;;;;4.72;2.85;;;;;;;16.35;63.70;99880.75;5010245;28;20046;-69
2022/09/05 04:44:44;;;;;;;5.57;3.28;;;;;;;16.35;64.00;99883.41;5010311;28;20068;-70
2022/09/05 04:47:15;;;;;;;5.82;2.75;;;;;;;16.34;63.99;99882.53;5009618;28;20072;-69
2022/09/05 04:49:50;;;;;;;5.35;3.20;;;;;;;16.33;64.08;99880.84;5010376;28;20160;-68
2022/09/05 04:52:49;;;;;;;13.38;3.92;;;;;;;16.30;63.89;99883.75;5010358;28;20065;-69
2022/09/05 04:55:23;;;;;;;14.00;4.00;;;;;;;16.27;64.09;99890.13;5010065;28;20049;-70
2022/09/05 04:57:55;;;;;;;12.65;3.95;;;;;;;16.30;64.09;99889.06;5009324;28;20041;-67
2022/09/05 05:00:26;;;;;;;6.13;3.08;;;;;;;16.33;64.15;99878.19;5010246;28;20137;-70
2022/09/05 05:02:56;;;;;;;5.72;3.10;;;;;;;16.37;63.60;99887.66;5009994;28;20065;-70
2022/09/05 05:05:25;;;;;;;6.63;3.40;;;;;;;16.41;64.10;99890.94;5010145;28;20060;-69
2022/09/05 05:07:57;;;;;;;5.78;2.95;;;;;;;16.40;63.91;99887.44;5009183;28;20046;-68
2022/09/05 05:10:33;;;;;;;3.70;3.00;;;;;;;16.36;63.69;99885.94;5009852;28;20053;-70
2022/09/05 05:13:07;;;;;;;9.20;3.13;;;;;;;16.38;63.66;99893.81;5012898;28;20260;-70
2022/09/05 05:15:45;;;;;;;6.43;2.83;;;;;;;16.41;63.67;99891.78;5021673;28;20041;-69
2022/09/05 05:18:19;;;;;;;6.97;3.67;;;;;;;16.43;64.07;99905.00;5020235;28;20416;-69
2022/09/05 05:20:55;;;;;;;5.20;2.90;;;;;;;16.42;64.28;99905.97;5020507;28;20041;-70
2022/09/05 05:23:33;;;;;;;5.03;3.20;;;;;;;16.45;63.54;99900.41;5019337;28;20042;-57
2022/09/05 05:26:03;;;;;;;7.10;4.10;;;;;;;16.52;63.60;99907.84;5018622;28;20057;-57
2022/09/05 05:28:54;;;;;;;11.15;3.30;;;;;;;16.58;63.69;99909.19;5019463;28;20501;-54
2022/09/05 05:31:24;;;;;;;7.25;3.50;;;;;;;16.63;63.38;99909.72;5020258;28;20092;-57
2022/09/05 05:33:54;;;;;;;10.25;3.38;;;;;;;16.66;63.78;99911.31;5020958;28;20473;-49
2022/09/05 05:36:25;;;;;;;6.10;3.47;;;;;;;16.65;63.87;99913.13;5025838;28;20053;-48
2022/09/05 05:38:59;;;;;;;12.18;3.58;;;;;;;16.69;63.40;99911.09;5029561;28;20055;-46
2022/09/05 05:41:33;;;;;;;11.32;4.10;;;;;;;16.72;63.81;99905.56;5029123;28;20084;-49
2022/09/05 05:44:00;;;;;;;11.23;3.63;;;;;;;16.73;63.45;99910.75;5029760;28;20051;-54
2022/09/05 05:46:39;;;;;;;12.27;4.18;;;;;;;16.83;63.56;99912.78;5027849;28;20055;-54
2022/09/05 05:49:27;;;;;;;9.98;3.40;;;;;;;16.91;63.59;99919.25;5029516;28;20236;-50
2022/09/05 05:52:12;;;;;;;15.75;4.40;;;;;;;16.97;63.62;99907.28;5028974;28;20053;-51
2022/09/05 05:54:46;;;;;;;9.82;4.38;;;;;;;16.89;64.05;99910.53;5026385;28;20053;-56
2022/09/05 05:57:42;;;;;;;10.80;4.53;;;;;;;16.91;64.03;99916.59;5008810;28;20049;-60
2022/09/05 06:00:18;;;;;;;47.28;35.40;;;;;;;16.94;64.15;99916.34;5018097;28;20052;-73
2022/09/05 06:03:20;;;;;;;21.35;11.73;;;;;;;17.02;64.24;99918.44;5027219;28;20621;-73
2022/09/05 06:06:08;;;;;;;15.02;5.00;;;;;;;17.07;64.40;99926.09;5035890;28;20136;-72
2022/09/05 06:09:23;;;;;;;11.30;4.38;;;;;;;17.11;64.62;99922.25;5029740;28;20092;-73
2022/09/05 06:12:05;;;;;;;7.43;3.65;;;;;;;17.19;64.22;99919.03;5018145;28;20049;-73
2022/09/05 06:15:06;;;;;;;25.85;4.50;;;;;;;17.24;64.24;99931.03;5009936;28;20053;-73
2022/09/05 06:18:08;;;;;;;11.80;3.42;;;;;;;17.33;64.42;99927.69;5009167;28;20046;-73
2022/09/05 06:20:55;;;;;;;5.80;4.10;;;;;;;17.44;64.20;99936.69;5026301;28;20660;-73
2022/09/05 06:24:01;;;;;;;7.95;3.30;;;;;;;17.51;64.14;99936.09;5029518;28;20132;-74
2022/09/05 06:26:56;;;;;;;8.23;4.00;;;;;;;17.57;64.20;99929.44;5028748;28;20053;-72
2022/09/05 06:29:34;;;;;;;7.95;3.28;;;;;;;17.62;64.61;99940.59;5028706;28;20056;-71
2022/09/05 06:32:13;;;;;;;8.85;4.85;;;;;;;17.70;64.50;99930.22;5024844;28;20046;-71
2022/09/05 06:35:02;;;;;;;12.43;3.30;;;;;;;17.79;64.67;99932.19;5033108;28;20050;-73
2022/09/05 06:37:43;;;;;;;9.38;3.75;;;;;;;17.90;64.67;99933.22;5031560;28;20060;-73
2022/09/05 06:40:19;;;;;;;12.55;3.60;;;;;;;18.01;65.06;99928.72;5037625;28;20053;-72
2022/09/05 06:43:16;;;;;;;9.90;4.57;;;;;;;18.15;64.69;99929.47;5033282;28;20049;-72
2022/09/05 06:46:16;;;;;;;11.98;3.72;;;;;;;18.24;65.16;99929.59;5033524;28;21007;-72
2022/09/05 06:48:49;;;;;;;10.20;3.45;;;;;;;18.36;65.02;99927.78;5030090;28;20056;-72
2022/09/05 06:51:38;;;;;;;7.45;3.85;;;;;;;18.55;64.45;99937.81;5029940;28;20152;-73
2022/09/05 06:54:43;;;;;;;10.52;3.25;;;;;;;18.78;63.65;99937.81;5029707;28;20049;-73
2022/09/05 06:57:43;;;;;;;8.32;3.03;;;;;;;19.00;62.00;99932.44;4998737;28;20045;-72
2022/09/05 07:00:19;;;;;;;11.73;3.88;;;;;;;19.18;61.41;99934.56;5033578;28;20053;-72
2022/09/05 07:03:03;;;;;;;9.48;3.80;;;;;;;19.35;60.89;99935.84;5033335;28;20152;-72
2022/09/05 07:05:38;;;;;;;7.72;4.22;;;;;;;19.52;60.07;99927.25;5033065;28;20049;-73
2022/09/05 07:08:19;;;;;;;11.27;5.88;;;;;;;19.63;60.87;99942.38;5024352;28;20042;-73
2022/09/05 07:10:57;;;;;;;14.32;4.22;;;;;;;19.76;60.73;99940.38;5033361;28;20053;-72
2022/09/05 07:13:33;;;;;;;5.93;3.75;;;;;;;19.90;61.00;99941.91;5034162;28;20052;-72
2022/09/05 07:16:10;;;;;;;8.07;3.33;;;;;;;19.99;61.25;99933.09;5042604;28;20088;-73
2022/09/05 07:18:46;;;;;;;18.95;5.20;;;;;;;20.16;61.91;99931.63;5047391;28;20065;-73
2022/09/05 07:21:21;;;;;;;15.80;4.95;;;;;;;20.35;61.93;99930.84;5049910;28;20049;-73
2022/09/05 07:23:55;;;;;;;5.03;3.10;;;;;;;20.56;61.78;99939.72;5050299;28;20076;-74
2022/09/05 07:26:23;;;;;;;5.78;2.50;;;;;;;20.86;58.95;99937.94;5040357;28;20054;-73
2022/09/05 07:28:53;;;;;;;6.95;2.78;;;;;;;21.13;56.69;99937.28;5038208;28;20041;-73
2022/09/05 07:31:25;;;;;;;6.28;2.40;;;;;;;21.43;54.05;99930.97;5034343;28;20144;-73
2022/09/05 07:34:08;;;;;;;8.68;2.55;;;;;;;21.77;55.76;99940.41;5035988;28;20056;-72
2022/09/05 07:36:42;;;;;;;9.02;2.90;;;;;;;21.99;52.31;99937.41;5033343;28;20057;-72
2022/09/05 07:39:12;;;;;;;11.02;2.80;;;;;;;22.34;52.89;99938.59;5033293;28;20049;-72
2022/09/05 07:41:43;;;;;;;11.07;3.30;;;;;;;22.56;53.14;99939.19;5033044;28;20152;-72
2022/09/05 07:44:16;;;;;;;4.25;2.60;;;;;;;22.70;50.98;99933.34;5033938;28;20049;-73
2022/09/05 07:46:48;;;;;;;8.98;2.83;;;;;;;22.90;52.48;99939.44;5032420;28;20057;-72
2022/09/05 07:49:19;;;;;;;7.75;2.83;;;;;;;23.13;52.36;99938.03;5032126;28;20045;-72
2022/09/05 07:51:53;;;;;;;3.60;1.92;;;;;;;23.37;47.33;99936.56;5032390;28;20059;-72
2022/09/05 07:54:25;;;;;;;4.68;1.95;;;;;;;23.65;45.19;99942.69;5032465;28;20051;-72
2022/09/05 07:56:55;;;;;;;4.00;2.33;;;;;;;24.01;43.56;99945.34;5031891;28;20136;-72
2022/09/05 07:59:25;;;;;;;2.55;1.80;;;;;;;24.39;40.89;99944.06;5032499;28;20041;-73
2022/09/05 08:01:54;;;;;;;2.75;1.70;;;;;;;24.68;40.27;99950.09;5032402;28;20136;-72
2022/09/05 08:04:27;;;;;;;5.97;2.10;;;;;;;24.81;39.43;99947.81;5028163;28;20144;-71
2022/09/05 08:06:58;;;;;;;2.95;1.70;;;;;;;25.01;37.66;99938.41;5012029;28;20054;-72
2022/09/05 08:09:28;;;;;;;4.78;1.92;;;;;;;25.28;38.50;99936.47;5012269;28;20042;-73
2022/09/05 08:12:00;;;;;;;3.47;1.77;;;;;;;25.54;38.42;99930.91;5012713;28;20136;-73
2022/09/05 08:14:42;;;;;;;7.18;2.33;;;;;;;25.75;37.01;99929.56;5012365;28;20157;-72
2022/09/05 08:17:14;;;;;;;2.90;2.00;;;;;;;25.83;37.16;99930.38;5017988;28;20053;-74
2022/09/05 08:20:09;;;;;;;4.47;1.73;;;;;;;25.91;37.59;99932.25;5032270;28;20397;-73
2022/09/05 08:22:49;;;;;;;3.05;1.95;;;;;;;26.08;34.08;99928.50;5029325;28;20049;-74
2022/09/05 08:25:20;;;;;;;5.38;1.77;;;;;;;26.26;33.97;99925.63;5031429;28;20068;-74
2022/09/05 08:27:59;;;;;;;2.20;1.63;;;;;;;26.40;33.59;99920.47;5031127;28;20045;-73
2022/09/05 08:30:27;;;;;;;2.33;1.65;;;;;;;26.54;32.62;99926.03;5031936;28;20144;-73
2022/09/05 08:33:00;;;;;;;5.15;1.60;;;;;;;26.70;33.03;99926.97;5020847;28;20395;-73
2022/09/05 08:35:38;;;;;;;2.45;1.75;;;;;;;26.84;32.52;99919.97;5033466;28;20117;-74
2022/09/05 08:38:08;;;;;;;3.78;1.73;;;;;;;26.82;31.59;99927.41;5035482;28;20067;-73
2022/09/05 08:40:41;;;;;;;3.10;1.60;;;;;;;26.91;30.90;99929.06;5031996;28;20136;-72
2022/09/05 08:43:16;;;;;;;2.75;1.73;;;;;;;26.81;30.85;99932.00;5031169;28;20091;-73
2022/09/05 08:45:50;;;;;;;6.90;1.98;;;;;;;27.04;30.63;99923.91;5031414;28;20388;-75
2022/09/05 08:48:23;;;;;;;2.30;1.70;;;;;;;27.18;31.05;99919.59;5031035;28;20049;-73
2022/09/05 08:51:07;;;;;;;3.58;1.70;;;;;;;27.41;30.46;99920.44;5031024;28;20142;-73
2022/09/05 08:53:48;;;;;;;3.30;1.85;;;;;;;27.58;30.16;99917.63;5030829;28;20053;-74
2022/09/05 08:56:20;;;;;;;2.70;1.50;;;;;;;27.71;30.27;99917.81;5030537;28;20081;-73
2022/09/05 08:58:57;;;;;;;2.90;1.80;;;;;;;27.60;30.28;99923.69;5031214;28;20042;-72
2022/09/05 09:01:32;;;;;;;2.72;1.67;;;;;;;27.68;30.41;99917.34;5010914;28;20168;-72
2022/09/05 09:04:19;;;;;;;6.82;2.55;;;;;;;27.63;29.93;99916.03;5010855;28;20054;-73
2022/09/05 09:07:00;;;;;;;4.53;2.17;;;;;;;27.57;29.87;99921.38;5010623;28;20056;-73
2022/09/05 09:09:39;;;;;;;3.55;1.88;;;;;;;27.77;29.93;99925.22;5010678;28;20050;-73
2022/09/05 09:12:15;;;;;;;3.00;1.65;;;;;;;27.88;29.62;99915.84;5011010;28;20050;-72
2022/09/05 09:14:56;;;;;;;2.30;1.98;;;;;;;28.17;29.11;99914.19;5011030;28;20060;-72
2022/09/05 09:17:42;;;;;;;4.72;2.05;;;;;;;28.36;28.38;99910.06;5018466;28;20500;-72
2022/09/05 09:20:16;;;;;;;3.05;1.90;;;;;;;28.81;28.83;99916.28;5030333;28;20493;-72
2022/09/05 09:22:54;;;;;;;2.47;1.90;;;;;;;29.43;27.06;99904.00;5030380;28;20049;-72
2022/09/05 09:25:26;;;;;;;4.88;2.17;;;;;;;30.32;26.38;99900.72;5029903;28;20551;-74
2022/09/05 09:28:10;;;;;;;5.45;1.88;;;;;;;31.49;24.77;99890.63;5029192;28;20053;-72
2022/09/05 09:30:41;;;;;;;5.35;1.90;;;;;;;32.59;23.33;99890.84;5030304;28;20081;-74
2022/09/05 09:33:14;;;;;;;3.38;1.85;;;;;;;33.36;22.46;99898.00;5020515;28;20041;-73
2022/09/05 09:35:51;;;;;;;2.55;1.92;;;;;;;34.13;21.78;99881.34;5030199;28;20403;-73
2022/09/05 09:38:27;;;;;;;5.60;2.05;;;;;;;34.69;20.39;99898.59;5030172;28;20103;-75
2022/09/05 09:41:36;;;;;;;4.22;2.10;;;;;;;35.17;20.10;99884.03;5030016;28;20057;-73
2022/09/05 09:44:41;;;;;;;4.38;2.55;;;;;;;35.71;19.80;99874.94;5030096;28;20060;-73
2022/09/05 09:47:13;;;;;;;4.63;3.10;;;;;;;36.27;19.34;99870.72;5030044;28;20053;-74
2022/09/05 09:50:02;;;;;;;2.45;1.83;;;;;;;36.27;18.56;99859.75;5030939;28;20053;-74
2022/09/05 09:53:02;;;;;;;3.28;1.85;;;;;;;36.62;18.69;99859.66;5029471;28;20049;-73
2022/09/05 09:55:58;;;;;;;1.83;1.30;;;;;;;37.11;18.16;99861.94;5023262;28;20048;-74
2022/09/05 09:58:43;;;;;;;2.92;1.85;;;;;;;37.44;17.28;99854.78;5012839;28;20497;-73
2022/09/05 10:01:28;;;;;;;4.88;1.70;;;;;;;37.49;17.87;99857.66;5029984;28;20056;-73
2022/09/05 10:04:30;;;;;;;1.70;1.45;;;;;;;37.41;17.60;99853.38;5029847;28;20049;-74
2022/09/05 10:07:16;;;;;;;3.50;1.67;;;;;;;37.38;17.38;99853.88;5013741;28;20117;-74
2022/09/05 10:10:02;;;;;;;2.80;1.70;;;;;;;37.52;17.44;99865.41;5029558;28;20041;-74
2022/09/05 10:13:13;;;;;;;3.05;1.63;;;;;;;37.49;17.25;99863.97;5029484;28;20196;-74
2022/09/05 10:16:05;;;;;;;1.98;1.60;;;;;;;37.78;17.27;99859.22;5009693;28;20049;-74
2022/09/05 10:18:44;;;;;;;10.25;1.80;;;;;;;37.72;16.86;99854.72;5009480;28;20048;-73
2022/09/05 10:21:39;;;;;;;2.97;1.80;;;;;;;37.69;16.78;99855.22;5010040;28;20081;-74
2022/09/05 10:24:25;;;;;;;4.32;1.70;;;;;;;37.51;17.06;99859.06;5009823;28;20046;-73
2022/09/05 10:27:16;;;;;;;3.83;1.90;;;;;;;37.64;17.41;99862.56;5009049;28;20089;-73
2022/09/05 10:29:52;;;;;;;2.92;1.73;;;;;;;37.58;17.32;99850.63;5009567;28;20050;-75
2022/09/05 10:32:24;;;;;;;2.55;1.42;;;;;;;37.90;16.85;99850.00;5030059;28;20511;-73
2022/09/05 10:34:57;;;;;;;2.47;1.70;;;;;;;38.14;17.26;99843.19;5033037;28;20520;-73
2022/09/05 10:37:34;;;;;;;2.33;1.38;;;;;;;38.10;16.56;99838.47;5032634;28;20056;-75
2022/09/05 10:40:06;;;;;;;6.88;2.58;;;;;;;37.78;16.63;99845.47;5033183;28;20052;-73
2022/09/05 10:42:37;;;;;;;2.20;1.45;;;;;;;37.27;17.56;99844.66;5033231;28;20069;-74
2022/09/05 10:45:13;;;;;;;2.38;1.50;;;;;;;36.47;18.11;99837.34;5033091;28;20095;-75
2022/09/05 10:47:47;;;;;;;3.17;1.88;;;;;;;35.77;18.84;99836.41;5032549;28;20500;-73
2022/09/05 10:50:26;;;;;;;8.15;1.95;;;;;;;35.37;18.96;99836.25;5032828;28;20068;-73
2022/09/05 10:53:06;;;;;;;15.25;12.13;;;;;;;34.96;19.34;99835.22;5024612;28;20053;-73
2022/09/05 10:55:44;;;;;;;2.55;1.63;;;;;;;34.53;19.71;99838.94;5033024;28;20045;-73
2022/09/05 10:58:23;;;;;;;3.42;1.98;;;;;;;34.13;19.62;99840.28;5032801;28;20091;-72
2022/09/05 11:01:00;;;;;;;2.30;1.42;;;;;;;33.81;20.27;99836.84;5032898;28;20084;-73
2022/09/05 11:03:41;;;;;;;2.47;1.52;;;;;;;33.45;20.88;99829.38;5033139;28;20132;-73
2022/09/05 11:06:15;;;;;;;2.50;1.60;;;;;;;32.79;21.33;99839.72;5032051;28;20096;-73
2022/09/05 11:08:45;;;;;;;;;;;;;;;32.71;21.77;99829.03;5032995;28;20092;-72
2022/09/05 11:11:17;;;;;;;1.88;1.50;;;;;;;32.08;22.84;99829.75;5033104;28;20024;-72
2022/09/05 11:13:46;;;;;;;6.35;3.17;;;;;;;31.93;22.79;99827.25;5038056;28;20049;-72
2022/09/05 11:16:27;;;;;;;2.53;1.58;;;;;;;31.81;23.41;99826.22;5035933;28;20132;-73
2022/09/05 11:18:59;;;;;;;2.20;1.38;;;;;;;31.68;23.63;99816.19;5032663;28;20049;-72
2022/09/05 11:21:36;;;;;;;3.28;1.90;;;;;;;31.51;23.82;99820.41;5032606;28;20041;-72
2022/09/05 11:24:18;;;;;;;3.67;1.90;;;;;;;31.45;23.86;99822.06;5032122;28;20056;-74
2022/09/05 11:26:47;;;;;;;3.08;1.70;;;;;;;31.41;23.72;99820.84;5031887;28;20045;-72
2022/09/05 11:29:17;;;;;;;3.25;1.63;;;;;;;31.33;23.70;99810.97;5032095;28;20412;-67
2022/09/05 11:32:03;;;;;;;2.78;1.52;;;;;;;31.28;24.01;99813.47;5028944;28;20129;-70
2022/09/05 11:35:00;;;;;;;3.15;1.58;;;;;;;31.22;23.63;99811.59;5027815;28;20543;-68
2022/09/05 11:37:47;;;;;;;1.90;1.42;;;;;;;31.30;23.64;99807.81;5031623;28;20057;-68
2022/09/05 11:40:43;;;;;;;3.10;1.58;;;;;;;31.16;23.79;99804.22;5032440;28;20056;-70
2022/09/05 11:43:46;;;;;;;3.78;1.33;;;;;;;31.15;23.65;99797.13;5034036;28;20132;-69
2022/09/05 11:46:23;;;;;;;3.08;1.95;;;;;;;30.96;23.99;99802.38;5031900;28;20141;-70
2022/09/05 11:49:14;;;;;;;4.47;2.47;;;;;;;30.75;24.72;99797.06;5020268;28;20132;-68
2022/09/05 11:52:22;;;;;;;5.57;2.10;;;;;;;30.85;24.19;99786.63;5031957;28;20057;-69
2022/09/05 11:55:21;;;;;;;2.90;1.80;;;;;;;30.83;24.53;99786.00;5031441;28;20140;-69
2022/09/05 11:58:11;;;;;;;4.80;2.42;;;;;;;30.86;24.24;99782.03;4998588;28;20085;-68
2022/09/05 12:00:44;;;;;;;3.22;1.92;;;;;;;30.91;24.34;99787.69;5012085;28;20050;-69
2022/09/05 12:03:44;;;;;;;2.70;2.00;;;;;;;30.85;23.95;99780.34;5012189;28;20057;-68
2022/09/05 12:06:31;;;;;;;3.58;1.83;;;;;;;30.76;24.21;99776.94;5019617;28;20061;-67
2022/09/05 12:09:07;;;;;;;2.65;1.95;;;;;;;30.53;24.83;99780.06;5031356;28;20046;-69
2022/09/05 12:11:51;;;;;;;3.17;1.60;;;;;;;30.16;24.98;99776.78;5031476;28;20140;-69
2022/09/05 12:14:36;;;;;;;1.98;1.30;;;;;;;30.17;25.60;99784.72;5031506;28;20056;-70
2022/09/05 12:17:13;;;;;;;3.10;2.30;;;;;;;30.21;25.24;99777.00;5030976;28;20619;-70
2022/09/05 12:19:47;;;;;;;4.00;2.10;;;;;;;30.27;25.23;99780.81;5031404;28;20042;-69
2022/09/05 12:22:33;;;;;;;2.75;2.03;;;;;;;30.38;24.89;99781.06;5031377;28;20061;-70
2022/09/05 12:25:22;;;;;;;3.10;2.08;;;;;;;30.55;24.88;99784.25;5030770;28;20508;-68
2022/09/05 12:27:53;;;;;;;4.20;1.75;;;;;;;30.63;25.25;99777.78;5030531;28;20115;-70
2022/09/05 12:30:25;;;;;;;3.50;1.75;;;;;;;30.86;25.13;99777.41;5031357;28;20046;-70
2022/09/05 12:32:54;;;;;;;3.28;1.55;;;;;;;30.95;24.82;99781.63;5030889;28;20041;-70
2022/09/05 12:35:27;;;;;;;2.85;1.70;;;;;;;31.00;24.92;99783.72;5031168;28;20064;-70